sensor_id;sensor_type;location;lat;lon;timestamp;P1;durP1;ratioP1;P2;durP2;ratioP2
58017;SDS011;43810;50.860;19.226;2022-07-23T00:00:48;17.80;;;10.73;;
58017;SDS011;43810;50.860;19.226;2022-07-23T00:03:14;17.27;;;11.23;;
58017;SDS011;43810;50.860;19.226;2022-07-23T00:05:40;18.83;;;11.55;;
58017;SDS011;43810;50.860;19.226;2022-07-23T00:08:06;18.67;;;11.05;;
58017;SDS011;43810;50.860;19.226;2022-07-23T00:10:32;20.58;;;11.55;;
58017;SDS011;43810;50.860;19.226;2022-07-23T00:12:57;16.45;;;10.82;;
58017;SDS011;43810;50.860;19.226;2022-07-23T00:15:23;16.92;;;10.77;;
58017;SDS011;43810;50.860;19.226;2022-07-23T00:17:49;15.77;;;10.93;;
58017;SDS011;43810;50.860;19.226;2022-07-23T00:20:14;19.05;;;11.48;;
58017;SDS011;43810;50.860;19.226;2022-07-23T00:22:50;20.27;;;11.95;;
58017;SDS011;43810;50.860;19.226;2022-07-23T00:25:16;17.83;;;11.05;;
58017;SDS011;43810;50.860;19.226;2022-07-23T00:27:42;17.35;;;11.13;;
58017;SDS011;43810;50.860;19.226;2022-07-23T00:30:07;15.55;;;11.23;;
58017;SDS011;43810;50.860;19.226;2022-07-23T00:32:44;20.10;;;11.82;;
58017;SDS011;43810;50.860;19.226;2022-07-23T00:35:10;18.95;;;11.15;;
58017;SDS011;43810;50.860;19.226;2022-07-23T00:37:35;18.33;;;10.65;;
58017;SDS011;43810;50.860;19.226;2022-07-23T00:40:01;21.73;;;11.13;;
58017;SDS011;43810;50.860;19.226;2022-07-23T00:42:26;16.85;;;10.10;;
58017;SDS011;43810;50.860;19.226;2022-07-23T00:44:52;17.20;;;11.48;;
58017;SDS011;43810;50.860;19.226;2022-07-23T00:47:18;21.85;;;11.30;;
58017;SDS011;43810;50.860;19.226;2022-07-23T00:49:43;16.98;;;10.13;;
58017;SDS011;43810;50.860;19.226;2022-07-23T00:52:09;14.98;;;10.13;;
58017;SDS011;43810;50.860;19.226;2022-07-23T00:54:34;16.85;;;10.10;;
58017;SDS011;43810;50.860;19.226;2022-07-23T00:57:00;15.73;;;10.90;;
58017;SDS011;43810;50.860;19.226;2022-07-23T00:59:26;14.45;;;10.02;;
58017;SDS011;43810;50.860;19.226;2022-07-23T01:01:51;18.85;;;12.13;;
58017;SDS011;43810;50.860;19.226;2022-07-23T01:04:17;19.45;;;11.38;;
58017;SDS011;43810;50.860;19.226;2022-07-23T01:06:43;16.65;;;11.52;;
58017;SDS011;43810;50.860;19.226;2022-07-23T01:09:08;18.77;;;11.18;;
58017;SDS011;43810;50.860;19.226;2022-07-23T01:11:34;16.02;;;11.02;;
58017;SDS011;43810;50.860;19.226;2022-07-23T01:14:14;17.08;;;11.32;;
58017;SDS011;43810;50.860;19.226;2022-07-23T01:16:40;16.05;;;11.65;;
58017;SDS011;43810;50.860;19.226;2022-07-23T01:19:06;15.68;;;11.68;;
58017;SDS011;43810;50.860;19.226;2022-07-23T01:21:39;16.17;;;10.52;;
58017;SDS011;43810;50.860;19.226;2022-07-23T01:24:05;19.50;;;11.13;;
58017;SDS011;43810;50.860;19.226;2022-07-23T01:26:31;15.20;;;11.07;;
58017;SDS011;43810;50.860;19.226;2022-07-23T01:28:56;16.63;;;9.93;;
58017;SDS011;43810;50.860;19.226;2022-07-23T01:31:22;14.35;;;11.00;;
58017;SDS011;43810;50.860;19.226;2022-07-23T01:33:48;17.40;;;10.88;;
58017;SDS011;43810;50.860;19.226;2022-07-23T01:36:14;15.30;;;11.05;;
58017;SDS011;43810;50.860;19.226;2022-07-23T01:38:39;19.40;;;11.63;;
58017;SDS011;43810;50.860;19.226;2022-07-23T01:41:05;14.73;;;10.52;;
58017;SDS011;43810;50.860;19.226;2022-07-23T01:43:30;17.42;;;11.02;;
58017;SDS011;43810;50.860;19.226;2022-07-23T01:45:56;16.00;;;11.65;;
58017;SDS011;43810;50.860;19.226;2022-07-23T01:48:22;16.98;;;11.95;;
58017;SDS011;43810;50.860;19.226;2022-07-23T01:50:47;19.05;;;12.00;;
58017;SDS011;43810;50.860;19.226;2022-07-23T01:53:13;18.67;;;12.15;;
58017;SDS011;43810;50.860;19.226;2022-07-23T01:55:39;15.82;;;11.95;;
58017;SDS011;43810;50.860;19.226;2022-07-23T01:58:05;19.75;;;12.30;;
58017;SDS011;43810;50.860;19.226;2022-07-23T02:00:31;16.58;;;11.20;;
58017;SDS011;43810;50.860;19.226;2022-07-23T02:02:56;14.35;;;11.60;;
58017;SDS011;43810;50.860;19.226;2022-07-23T02:05:24;15.85;;;11.20;;
58017;SDS011;43810;50.860;19.226;2022-07-23T02:07:49;15.38;;;10.40;;
58017;SDS011;43810;50.860;19.226;2022-07-23T02:10:15;17.40;;;12.27;;
58017;SDS011;43810;50.860;19.226;2022-07-23T02:12:40;17.05;;;11.18;;
58017;SDS011;43810;50.860;19.226;2022-07-23T02:15:06;18.40;;;12.20;;
58017;SDS011;43810;50.860;19.226;2022-07-23T02:17:32;18.08;;;12.43;;
58017;SDS011;43810;50.860;19.226;2022-07-23T02:19:57;15.65;;;11.93;;
58017;SDS011;43810;50.860;19.226;2022-07-23T02:22:23;17.23;;;11.60;;
58017;SDS011;43810;50.860;19.226;2022-07-23T02:24:48;19.70;;;11.60;;
58017;SDS011;43810;50.860;19.226;2022-07-23T02:27:14;16.98;;;13.07;;
58017;SDS011;43810;50.860;19.226;2022-07-23T02:29:39;17.65;;;12.95;;
58017;SDS011;43810;50.860;19.226;2022-07-23T02:32:05;18.10;;;12.35;;
58017;SDS011;43810;50.860;19.226;2022-07-23T02:34:31;18.20;;;12.07;;
58017;SDS011;43810;50.860;19.226;2022-07-23T02:36:56;21.65;;;13.40;;
58017;SDS011;43810;50.860;19.226;2022-07-23T02:39:22;22.05;;;13.82;;
58017;SDS011;43810;50.860;19.226;2022-07-23T02:41:47;21.27;;;13.13;;
58017;SDS011;43810;50.860;19.226;2022-07-23T02:44:12;21.88;;;12.82;;
58017;SDS011;43810;50.860;19.226;2022-07-23T02:46:38;19.67;;;12.95;;
58017;SDS011;43810;50.860;19.226;2022-07-23T02:49:04;16.85;;;12.13;;
58017;SDS011;43810;50.860;19.226;2022-07-23T02:51:30;15.80;;;11.63;;
58017;SDS011;43810;50.860;19.226;2022-07-23T02:53:56;20.23;;;13.27;;
58017;SDS011;43810;50.860;19.226;2022-07-23T02:56:21;19.08;;;13.13;;
58017;SDS011;43810;50.860;19.226;2022-07-23T02:58:47;19.85;;;12.65;;
58017;SDS011;43810;50.860;19.226;2022-07-23T03:01:13;20.63;;;13.20;;
58017;SDS011;43810;50.860;19.226;2022-07-23T03:03:38;18.60;;;12.60;;
58017;SDS011;43810;50.860;19.226;2022-07-23T03:06:03;17.02;;;11.88;;
58017;SDS011;43810;50.860;19.226;2022-07-23T03:08:29;18.88;;;12.05;;
58017;SDS011;43810;50.860;19.226;2022-07-23T03:10:55;18.95;;;12.32;;
58017;SDS011;43810;50.860;19.226;2022-07-23T03:13:20;17.95;;;13.15;;
58017;SDS011;43810;50.860;19.226;2022-07-23T03:15:46;18.50;;;11.85;;
58017;SDS011;43810;50.860;19.226;2022-07-23T03:18:12;19.10;;;13.15;;
58017;SDS011;43810;50.860;19.226;2022-07-23T03:20:38;18.35;;;11.68;;
58017;SDS011;43810;50.860;19.226;2022-07-23T03:23:03;17.35;;;11.90;;
58017;SDS011;43810;50.860;19.226;2022-07-23T03:25:31;19.90;;;12.57;;
58017;SDS011;43810;50.860;19.226;2022-07-23T03:27:56;21.60;;;13.77;;
58017;SDS011;43810;50.860;19.226;2022-07-23T03:30:22;19.20;;;11.57;;
58017;SDS011;43810;50.860;19.226;2022-07-23T03:32:48;18.45;;;12.32;;
58017;SDS011;43810;50.860;19.226;2022-07-23T03:35:13;19.67;;;13.23;;
58017;SDS011;43810;50.860;19.226;2022-07-23T03:37:40;21.33;;;12.90;;
58017;SDS011;43810;50.860;19.226;2022-07-23T03:40:05;15.73;;;12.15;;
58017;SDS011;43810;50.860;19.226;2022-07-23T03:42:31;17.77;;;11.50;;
58017;SDS011;43810;50.860;19.226;2022-07-23T03:44:57;15.15;;;11.75;;
58017;SDS011;43810;50.860;19.226;2022-07-23T03:47:22;19.17;;;11.40;;
58017;SDS011;43810;50.860;19.226;2022-07-23T03:49:48;17.92;;;11.52;;
58017;SDS011;43810;50.860;19.226;2022-07-23T03:52:14;19.65;;;13.43;;
58017;SDS011;43810;50.860;19.226;2022-07-23T03:54:40;19.58;;;12.02;;
58017;SDS011;43810;50.860;19.226;2022-07-23T03:57:05;15.88;;;11.30;;
58017;SDS011;43810;50.860;19.226;2022-07-23T03:59:31;20.40;;;12.07;;
58017;SDS011;43810;50.860;19.226;2022-07-23T04:01:57;16.02;;;11.05;;
58017;SDS011;43810;50.860;19.226;2022-07-23T04:04:22;14.90;;;10.35;;
58017;SDS011;43810;50.860;19.226;2022-07-23T04:06:48;18.45;;;12.00;;
58017;SDS011;43810;50.860;19.226;2022-07-23T04:09:13;16.75;;;11.45;;
58017;SDS011;43810;50.860;19.226;2022-07-23T04:11:39;19.00;;;11.30;;
58017;SDS011;43810;50.860;19.226;2022-07-23T04:14:04;16.17;;;11.60;;
58017;SDS011;43810;50.860;19.226;2022-07-23T04:16:30;16.65;;;11.13;;
58017;SDS011;43810;50.860;19.226;2022-07-23T04:18:56;18.73;;;11.50;;
58017;SDS011;43810;50.860;19.226;2022-07-23T04:21:22;14.68;;;10.70;;
58017;SDS011;43810;50.860;19.226;2022-07-23T04:23:48;15.30;;;10.80;;
58017;SDS011;43810;50.860;19.226;2022-07-23T04:26:13;19.00;;;10.98;;
58017;SDS011;43810;50.860;19.226;2022-07-23T04:28:39;18.15;;;11.32;;
58017;SDS011;43810;50.860;19.226;2022-07-23T04:31:05;18.50;;;11.38;;
58017;SDS011;43810;50.860;19.226;2022-07-23T04:33:30;18.42;;;10.50;;
58017;SDS011;43810;50.860;19.226;2022-07-23T04:35:56;20.02;;;11.15;;
58017;SDS011;43810;50.860;19.226;2022-07-23T04:38:21;17.27;;;10.93;;
58017;SDS011;43810;50.860;19.226;2022-07-23T04:40:47;18.77;;;10.75;;
58017;SDS011;43810;50.860;19.226;2022-07-23T04:43:13;15.80;;;9.80;;
58017;SDS011;43810;50.860;19.226;2022-07-23T04:45:38;13.15;;;9.65;;
58017;SDS011;43810;50.860;19.226;2022-07-23T04:48:04;14.65;;;9.10;;
58017;SDS011;43810;50.860;19.226;2022-07-23T04:50:30;17.58;;;10.90;;
58017;SDS011;43810;50.860;19.226;2022-07-23T04:52:55;14.10;;;10.02;;
58017;SDS011;43810;50.860;19.226;2022-07-23T04:55:20;12.70;;;9.20;;
58017;SDS011;43810;50.860;19.226;2022-07-23T04:57:46;14.07;;;10.20;;
58017;SDS011;43810;50.860;19.226;2022-07-23T05:00:12;14.80;;;9.75;;
58017;SDS011;43810;50.860;19.226;2022-07-23T05:02:37;13.02;;;11.07;;
58017;SDS011;43810;50.860;19.226;2022-07-23T05:05:03;16.55;;;10.95;;
58017;SDS011;43810;50.860;19.226;2022-07-23T05:07:29;13.80;;;9.48;;
58017;SDS011;43810;50.860;19.226;2022-07-23T05:09:54;17.35;;;9.98;;
58017;SDS011;43810;50.860;19.226;2022-07-23T05:12:20;13.65;;;10.05;;
58017;SDS011;43810;50.860;19.226;2022-07-23T05:14:45;15.48;;;10.02;;
58017;SDS011;43810;50.860;19.226;2022-07-23T05:17:11;13.65;;;10.70;;
58017;SDS011;43810;50.860;19.226;2022-07-23T05:19:36;12.18;;;9.85;;
58017;SDS011;43810;50.860;19.226;2022-07-23T05:22:02;17.77;;;10.52;;
58017;SDS011;43810;50.860;19.226;2022-07-23T05:24:27;14.70;;;10.10;;
58017;SDS011;43810;50.860;19.226;2022-07-23T05:26:53;13.75;;;9.55;;
58017;SDS011;43810;50.860;19.226;2022-07-23T05:29:19;14.02;;;10.10;;
58017;SDS011;43810;50.860;19.226;2022-07-23T05:31:44;14.43;;;10.20;;
58017;SDS011;43810;50.860;19.226;2022-07-23T05:34:10;14.07;;;10.55;;
58017;SDS011;43810;50.860;19.226;2022-07-23T05:36:35;16.02;;;9.95;;
58017;SDS011;43810;50.860;19.226;2022-07-23T05:39:01;11.82;;;10.07;;
58017;SDS011;43810;50.860;19.226;2022-07-23T05:41:26;16.73;;;10.25;;
58017;SDS011;43810;50.860;19.226;2022-07-23T05:43:52;14.35;;;9.50;;
58017;SDS011;43810;50.860;19.226;2022-07-23T05:46:17;12.70;;;9.07;;
58017;SDS011;43810;50.860;19.226;2022-07-23T05:48:43;13.63;;;9.40;;
58017;SDS011;43810;50.860;19.226;2022-07-23T05:51:11;14.23;;;10.00;;
58017;SDS011;43810;50.860;19.226;2022-07-23T05:53:36;14.77;;;10.15;;
58017;SDS011;43810;50.860;19.226;2022-07-23T05:56:03;15.13;;;9.48;;
58017;SDS011;43810;50.860;19.226;2022-07-23T05:58:29;16.67;;;10.10;;
58017;SDS011;43810;50.860;19.226;2022-07-23T06:00:54;14.27;;;9.32;;
58017;SDS011;43810;50.860;19.226;2022-07-23T06:03:20;14.30;;;9.98;;
58017;SDS011;43810;50.860;19.226;2022-07-23T06:05:46;17.98;;;10.90;;
58017;SDS011;43810;50.860;19.226;2022-07-23T06:08:11;15.00;;;9.98;;
58017;SDS011;43810;50.860;19.226;2022-07-23T06:10:37;12.05;;;9.50;;
58017;SDS011;43810;50.860;19.226;2022-07-23T06:13:03;12.85;;;9.55;;
58017;SDS011;43810;50.860;19.226;2022-07-23T06:15:34;12.65;;;9.52;;
58017;SDS011;43810;50.860;19.226;2022-07-23T06:18:15;14.70;;;8.85;;
58017;SDS011;43810;50.860;19.226;2022-07-23T06:20:44;12.07;;;9.25;;
58017;SDS011;43810;50.860;19.226;2022-07-23T06:23:15;9.93;;;8.57;;
58017;SDS011;43810;50.860;19.226;2022-07-23T06:25:48;13.35;;;8.90;;
58017;SDS011;43810;50.860;19.226;2022-07-23T06:28:17;11.75;;;8.57;;
58017;SDS011;43810;50.860;19.226;2022-07-23T06:30:43;10.63;;;8.55;;
58017;SDS011;43810;50.860;19.226;2022-07-23T06:33:10;11.02;;;9.15;;
58017;SDS011;43810;50.860;19.226;2022-07-23T06:35:40;13.85;;;9.00;;
58017;SDS011;43810;50.860;19.226;2022-07-23T06:38:06;10.10;;;8.68;;
58017;SDS011;43810;50.860;19.226;2022-07-23T06:40:38;13.60;;;8.15;;
58017;SDS011;43810;50.860;19.226;2022-07-23T06:43:04;9.77;;;8.35;;
58017;SDS011;43810;50.860;19.226;2022-07-23T06:45:34;13.43;;;8.68;;
58017;SDS011;43810;50.860;19.226;2022-07-23T06:48:00;11.90;;;7.90;;
58017;SDS011;43810;50.860;19.226;2022-07-23T06:50:27;9.55;;;8.52;;
58017;SDS011;43810;50.860;19.226;2022-07-23T06:52:54;9.68;;;8.43;;
58017;SDS011;43810;50.860;19.226;2022-07-23T06:55:25;12.80;;;8.68;;
58017;SDS011;43810;50.860;19.226;2022-07-23T06:57:50;13.48;;;9.23;;
58017;SDS011;43810;50.860;19.226;2022-07-23T07:00:27;11.18;;;8.00;;
58017;SDS011;43810;50.860;19.226;2022-07-23T07:02:53;9.90;;;8.73;;
58017;SDS011;43810;50.860;19.226;2022-07-23T07:05:23;13.65;;;8.77;;
58017;SDS011;43810;50.860;19.226;2022-07-23T07:07:54;12.15;;;7.75;;
58017;SDS011;43810;50.860;19.226;2022-07-23T07:10:35;14.95;;;8.90;;
58017;SDS011;43810;50.860;19.226;2022-07-23T07:13:03;13.63;;;8.68;;
58017;SDS011;43810;50.860;19.226;2022-07-23T07:15:32;17.25;;;9.73;;
58017;SDS011;43810;50.860;19.226;2022-07-23T07:17:58;14.68;;;9.05;;
58017;SDS011;43810;50.860;19.226;2022-07-23T07:20:24;17.33;;;9.90;;
58017;SDS011;43810;50.860;19.226;2022-07-23T07:22:50;13.65;;;9.13;;
58017;SDS011;43810;50.860;19.226;2022-07-23T07:25:15;14.88;;;10.90;;
58017;SDS011;43810;50.860;19.226;2022-07-23T07:27:41;13.77;;;10.20;;
58017;SDS011;43810;50.860;19.226;2022-07-23T07:30:10;15.82;;;9.18;;
58017;SDS011;43810;50.860;19.226;2022-07-23T07:32:36;13.13;;;10.57;;
58017;SDS011;43810;50.860;19.226;2022-07-23T07:35:03;10.98;;;8.27;;
58017;SDS011;43810;50.860;19.226;2022-07-23T07:37:28;14.38;;;9.40;;
58017;SDS011;43810;50.860;19.226;2022-07-23T07:39:54;7.82;;;7.03;;
58017;SDS011;43810;50.860;19.226;2022-07-23T07:42:20;9.27;;;7.45;;
58017;SDS011;43810;50.860;19.226;2022-07-23T07:44:45;10.82;;;7.57;;
58017;SDS011;43810;50.860;19.226;2022-07-23T07:47:11;9.13;;;7.45;;
58017;SDS011;43810;50.860;19.226;2022-07-23T07:49:36;7.53;;;6.72;;
58017;SDS011;43810;50.860;19.226;2022-07-23T07:52:02;9.00;;;6.30;;
58017;SDS011;43810;50.860;19.226;2022-07-23T07:54:28;6.65;;;5.97;;
58017;SDS011;43810;50.860;19.226;2022-07-23T07:56:54;9.77;;;6.80;;
58017;SDS011;43810;50.860;19.226;2022-07-23T07:59:19;9.95;;;6.25;;
58017;SDS011;43810;50.860;19.226;2022-07-23T08:01:45;6.90;;;5.93;;
58017;SDS011;43810;50.860;19.226;2022-07-23T08:04:11;10.32;;;6.45;;
58017;SDS011;43810;50.860;19.226;2022-07-23T08:06:36;6.90;;;6.20;;
58017;SDS011;43810;50.860;19.226;2022-07-23T08:09:02;6.20;;;5.35;;
58017;SDS011;43810;50.860;19.226;2022-07-23T08:11:27;7.53;;;5.47;;
58017;SDS011;43810;50.860;19.226;2022-07-23T08:13:53;6.97;;;6.28;;
58017;SDS011;43810;50.860;19.226;2022-07-23T08:16:18;6.20;;;5.60;;
58017;SDS011;43810;50.860;19.226;2022-07-23T08:18:44;7.85;;;5.97;;
58017;SDS011;43810;50.860;19.226;2022-07-23T08:21:09;9.98;;;6.10;;
58017;SDS011;43810;50.860;19.226;2022-07-23T08:23:35;11.05;;;6.28;;
58017;SDS011;43810;50.860;19.226;2022-07-23T08:26:01;6.03;;;5.43;;
58017;SDS011;43810;50.860;19.226;2022-07-23T08:28:26;8.07;;;5.28;;
58017;SDS011;43810;50.860;19.226;2022-07-23T08:30:52;6.22;;;5.18;;
58017;SDS011;43810;50.860;19.226;2022-07-23T08:33:18;6.70;;;5.55;;
58017;SDS011;43810;50.860;19.226;2022-07-23T08:35:48;8.10;;;5.75;;
58017;SDS011;43810;50.860;19.226;2022-07-23T08:38:15;6.07;;;5.38;;
58017;SDS011;43810;50.860;19.226;2022-07-23T08:40:42;5.88;;;5.38;;
58017;SDS011;43810;50.860;19.226;2022-07-23T08:43:13;8.93;;;5.75;;
58017;SDS011;43810;50.860;19.226;2022-07-23T08:45:40;5.72;;;5.05;;
58017;SDS011;43810;50.860;19.226;2022-07-23T08:48:24;6.88;;;4.93;;
58017;SDS011;43810;50.860;19.226;2022-07-23T08:50:53;5.80;;;5.28;;
58017;SDS011;43810;50.860;19.226;2022-07-23T08:53:20;5.60;;;4.90;;
58017;SDS011;43810;50.860;19.226;2022-07-23T08:55:48;5.82;;;5.13;;
58017;SDS011;43810;50.860;19.226;2022-07-23T08:58:17;8.82;;;5.38;;
58017;SDS011;43810;50.860;19.226;2022-07-23T09:00:50;5.80;;;5.25;;
58017;SDS011;43810;50.860;19.226;2022-07-23T09:05:57;9.70;;;6.65;;
58017;SDS011;43810;50.860;19.226;2022-07-23T09:08:37;6.63;;;5.25;;
58017;SDS011;43810;50.860;19.226;2022-07-23T09:11:06;9.48;;;6.13;;
58017;SDS011;43810;50.860;19.226;2022-07-23T09:13:39;5.85;;;5.35;;
58017;SDS011;43810;50.860;19.226;2022-07-23T09:18:40;6.72;;;5.55;;
58017;SDS011;43810;50.860;19.226;2022-07-23T09:23:48;7.47;;;5.40;;
58017;SDS011;43810;50.860;19.226;2022-07-23T09:26:24;6.97;;;5.05;;
58017;SDS011;43810;50.860;19.226;2022-07-23T09:28:57;6.90;;;5.22;;
58017;SDS011;43810;50.860;19.226;2022-07-23T09:31:24;6.60;;;5.57;;
58017;SDS011;43810;50.860;19.226;2022-07-23T09:34:01;5.18;;;4.65;;
58017;SDS011;43810;50.860;19.226;2022-07-23T09:36:31;5.80;;;4.95;;
58017;SDS011;43810;50.860;19.226;2022-07-23T09:38:56;7.75;;;4.82;;
58017;SDS011;43810;50.860;19.226;2022-07-23T09:41:22;5.63;;;5.00;;
58017;SDS011;43810;50.860;19.226;2022-07-23T09:43:54;6.60;;;4.75;;
58017;SDS011;43810;50.860;19.226;2022-07-23T09:46:21;6.35;;;4.40;;
58017;SDS011;43810;50.860;19.226;2022-07-23T09:48:47;5.28;;;4.78;;
58017;SDS011;43810;50.860;19.226;2022-07-23T09:51:13;7.07;;;4.68;;
58017;SDS011;43810;50.860;19.226;2022-07-23T09:53:45;6.45;;;4.45;;
58017;SDS011;43810;50.860;19.226;2022-07-23T09:56:11;5.00;;;4.18;;
58017;SDS011;43810;50.860;19.226;2022-07-23T09:58:38;7.95;;;4.65;;
58017;SDS011;43810;50.860;19.226;2022-07-23T10:01:09;5.82;;;4.85;;
58017;SDS011;43810;50.860;19.226;2022-07-23T10:03:37;5.07;;;4.40;;
58017;SDS011;43810;50.860;19.226;2022-07-23T10:06:03;5.70;;;4.28;;
58017;SDS011;43810;50.860;19.226;2022-07-23T10:08:29;4.90;;;4.38;;
58017;SDS011;43810;50.860;19.226;2022-07-23T10:10:56;6.28;;;4.72;;
58017;SDS011;43810;50.860;19.226;2022-07-23T10:13:22;5.57;;;4.90;;
58017;SDS011;43810;50.860;19.226;2022-07-23T10:15:48;5.32;;;4.68;;
58017;SDS011;43810;50.860;19.226;2022-07-23T10:18:13;7.50;;;6.25;;
58017;SDS011;43810;50.860;19.226;2022-07-23T10:20:41;8.88;;;5.03;;
58017;SDS011;43810;50.860;19.226;2022-07-23T10:23:23;5.82;;;5.22;;
58017;SDS011;43810;50.860;19.226;2022-07-23T10:25:55;5.82;;;5.32;;
58017;SDS011;43810;50.860;19.226;2022-07-23T10:36:49;6.45;;;5.13;;
58017;SDS011;43810;50.860;19.226;2022-07-23T10:42:09;5.85;;;5.30;;
58017;SDS011;43810;50.860;19.226;2022-07-23T10:44:38;9.38;;;5.47;;
58017;SDS011;43810;50.860;19.226;2022-07-23T10:47:20;9.63;;;5.22;;
58017;SDS011;43810;50.860;19.226;2022-07-23T10:55:51;6.85;;;4.90;;
58017;SDS011;43810;50.860;19.226;2022-07-23T10:58:45;4.85;;;4.40;;
58017;SDS011;43810;50.860;19.226;2022-07-23T11:04:02;8.35;;;5.00;;
58017;SDS011;43810;50.860;19.226;2022-07-23T11:09:44;8.10;;;5.05;;
58017;SDS011;43810;50.860;19.226;2022-07-23T11:15:13;5.53;;;4.35;;
58017;SDS011;43810;50.860;19.226;2022-07-23T11:20:29;6.07;;;4.55;;
58017;SDS011;43810;50.860;19.226;2022-07-23T11:22:56;10.15;;;7.65;;
58017;SDS011;43810;50.860;19.226;2022-07-23T11:25:29;8.98;;;4.97;;
58017;SDS011;43810;50.860;19.226;2022-07-23T11:28:16;11.15;;;5.05;;
58017;SDS011;43810;50.860;19.226;2022-07-23T11:30:44;5.75;;;4.13;;
58017;SDS011;43810;50.860;19.226;2022-07-23T11:35:51;6.85;;;4.80;;
58017;SDS011;43810;50.860;19.226;2022-07-23T11:38:31;5.55;;;4.90;;
58017;SDS011;43810;50.860;19.226;2022-07-23T11:40:59;5.78;;;4.60;;
58017;SDS011;43810;50.860;19.226;2022-07-23T11:43:29;8.07;;;4.65;;
58017;SDS011;43810;50.860;19.226;2022-07-23T11:46:00;5.40;;;4.70;;
58017;SDS011;43810;50.860;19.226;2022-07-23T11:48:27;6.00;;;4.75;;
58017;SDS011;43810;50.860;19.226;2022-07-23T11:50:56;8.20;;;4.45;;
58017;SDS011;43810;50.860;19.226;2022-07-23T11:53:28;11.20;;;4.95;;
58017;SDS011;43810;50.860;19.226;2022-07-23T11:55:54;9.15;;;5.32;;
58017;SDS011;43810;50.860;19.226;2022-07-23T11:58:25;7.93;;;4.97;;
58017;SDS011;43810;50.860;19.226;2022-07-23T12:01:00;6.78;;;4.97;;
58017;SDS011;43810;50.860;19.226;2022-07-23T12:03:30;5.30;;;4.65;;
58017;SDS011;43810;50.860;19.226;2022-07-23T12:06:50;5.68;;;5.00;;
58017;SDS011;43810;50.860;19.226;2022-07-23T12:09:32;7.10;;;5.43;;
58017;SDS011;43810;50.860;19.226;2022-07-23T12:12:01;6.30;;;5.70;;
58017;SDS011;43810;50.860;19.226;2022-07-23T12:14:26;7.55;;;5.60;;
58017;SDS011;43810;50.860;19.226;2022-07-23T12:17:10;7.35;;;5.45;;
58017;SDS011;43810;50.860;19.226;2022-07-23T12:19:36;6.57;;;5.32;;
58017;SDS011;43810;50.860;19.226;2022-07-23T12:22:02;6.63;;;5.38;;
58017;SDS011;43810;50.860;19.226;2022-07-23T12:24:27;7.25;;;5.57;;
58017;SDS011;43810;50.860;19.226;2022-07-23T12:27:11;5.57;;;5.07;;
58017;SDS011;43810;50.860;19.226;2022-07-23T12:29:37;7.60;;;5.82;;
58017;SDS011;43810;50.860;19.226;2022-07-23T12:32:16;5.88;;;5.28;;
58017;SDS011;43810;50.860;19.226;2022-07-23T12:34:45;7.63;;;5.68;;
58017;SDS011;43810;50.860;19.226;2022-07-23T12:37:28;6.43;;;5.82;;
58017;SDS011;43810;50.860;19.226;2022-07-23T12:39:55;8.88;;;6.43;;
58017;SDS011;43810;50.860;19.226;2022-07-23T12:42:21;7.68;;;5.93;;
58017;SDS011;43810;50.860;19.226;2022-07-23T12:45:09;9.52;;;6.40;;
58017;SDS011;43810;50.860;19.226;2022-07-23T12:47:52;7.97;;;6.10;;
58017;SDS011;43810;50.860;19.226;2022-07-23T12:50:32;7.22;;;6.40;;
58017;SDS011;43810;50.860;19.226;2022-07-23T12:53:17;9.57;;;6.55;;
58017;SDS011;43810;50.860;19.226;2022-07-23T12:55:43;8.80;;;7.10;;
58017;SDS011;43810;50.860;19.226;2022-07-23T13:00:52;10.88;;;6.82;;
58017;SDS011;43810;50.860;19.226;2022-07-23T13:03:38;7.78;;;6.55;;
58017;SDS011;43810;50.860;19.226;2022-07-23T13:06:04;12.32;;;6.63;;
58017;SDS011;43810;50.860;19.226;2022-07-23T13:08:31;13.68;;;7.25;;
58017;SDS011;43810;50.860;19.226;2022-07-23T13:10:57;8.00;;;6.10;;
58017;SDS011;43810;50.860;19.226;2022-07-23T13:13:24;10.80;;;6.85;;
58017;SDS011;43810;50.860;19.226;2022-07-23T13:15:50;12.88;;;6.40;;
58017;SDS011;43810;50.860;19.226;2022-07-23T13:18:15;8.20;;;6.47;;
58017;SDS011;43810;50.860;19.226;2022-07-23T13:20:42;8.32;;;6.10;;
58017;SDS011;43810;50.860;19.226;2022-07-23T13:23:08;17.77;;;6.63;;
58017;SDS011;43810;50.860;19.226;2022-07-23T13:25:33;9.50;;;6.50;;
58017;SDS011;43810;50.860;19.226;2022-07-23T13:27:59;10.43;;;7.22;;
58017;SDS011;43810;50.860;19.226;2022-07-23T13:30:25;10.73;;;6.97;;
58017;SDS011;43810;50.860;19.226;2022-07-23T13:32:51;7.53;;;6.72;;
58017;SDS011;43810;50.860;19.226;2022-07-23T13:35:17;10.68;;;6.60;;
58017;SDS011;43810;50.860;19.226;2022-07-23T13:37:42;9.32;;;6.57;;
58017;SDS011;43810;50.860;19.226;2022-07-23T13:40:08;11.50;;;6.38;;
58017;SDS011;43810;50.860;19.226;2022-07-23T13:42:33;12.73;;;7.22;;
58017;SDS011;43810;50.860;19.226;2022-07-23T13:44:59;16.13;;;8.52;;
58017;SDS011;43810;50.860;19.226;2022-07-23T13:47:25;17.65;;;7.88;;
58017;SDS011;43810;50.860;19.226;2022-07-23T13:49:50;71.53;;;12.18;;
58017;SDS011;43810;50.860;19.226;2022-07-23T13:52:16;22.55;;;8.20;;
58017;SDS011;43810;50.860;19.226;2022-07-23T13:54:41;28.27;;;9.32;;
58017;SDS011;43810;50.860;19.226;2022-07-23T13:57:07;20.85;;;8.98;;
58017;SDS011;43810;50.860;19.226;2022-07-23T13:59:35;26.17;;;9.98;;
58017;SDS011;43810;50.860;19.226;2022-07-23T14:02:01;16.20;;;10.60;;
58017;SDS011;43810;50.860;19.226;2022-07-23T14:04:27;18.95;;;10.57;;
58017;SDS011;43810;50.860;19.226;2022-07-23T14:06:53;19.42;;;12.18;;
58017;SDS011;43810;50.860;19.226;2022-07-23T14:09:18;15.70;;;10.88;;
58017;SDS011;43810;50.860;19.226;2022-07-23T14:11:43;18.38;;;10.65;;
58017;SDS011;43810;50.860;19.226;2022-07-23T14:14:09;17.05;;;10.35;;
58017;SDS011;43810;50.860;19.226;2022-07-23T14:16:35;17.67;;;11.75;;
58017;SDS011;43810;50.860;19.226;2022-07-23T14:19:00;15.75;;;11.35;;
58017;SDS011;43810;50.860;19.226;2022-07-23T14:21:26;12.23;;;8.85;;
58017;SDS011;43810;50.860;19.226;2022-07-23T14:23:51;14.40;;;10.50;;
58017;SDS011;43810;50.860;19.226;2022-07-23T14:26:17;13.52;;;9.05;;
58017;SDS011;43810;50.860;19.226;2022-07-23T14:28:44;12.73;;;9.70;;
58017;SDS011;43810;50.860;19.226;2022-07-23T14:31:09;14.82;;;10.13;;
58017;SDS011;43810;50.860;19.226;2022-07-23T14:33:34;14.35;;;10.23;;
58017;SDS011;43810;50.860;19.226;2022-07-23T14:36:00;15.05;;;10.25;;
58017;SDS011;43810;50.860;19.226;2022-07-23T14:38:26;14.23;;;9.65;;
58017;SDS011;43810;50.860;19.226;2022-07-23T14:40:52;12.85;;;9.02;;
58017;SDS011;43810;50.860;19.226;2022-07-23T14:43:17;9.90;;;7.88;;
58017;SDS011;43810;50.860;19.226;2022-07-23T14:45:43;12.85;;;8.32;;
58017;SDS011;43810;50.860;19.226;2022-07-23T14:48:08;10.57;;;8.20;;
58017;SDS011;43810;50.860;19.226;2022-07-23T14:50:34;12.70;;;7.35;;
58017;SDS011;43810;50.860;19.226;2022-07-23T14:53:00;11.13;;;7.95;;
58017;SDS011;43810;50.860;19.226;2022-07-23T14:55:25;12.75;;;7.85;;
58017;SDS011;43810;50.860;19.226;2022-07-23T14:57:51;8.93;;;7.32;;
58017;SDS011;43810;50.860;19.226;2022-07-23T15:00:16;10.45;;;6.95;;
58017;SDS011;43810;50.860;19.226;2022-07-23T15:02:42;11.15;;;8.27;;
58017;SDS011;43810;50.860;19.226;2022-07-23T15:05:08;10.02;;;7.75;;